Data for 02/18/2016

Time Sea-Level Adjusted Pressure Absolute Pressure Temperature Relative Humidity Dew Point   
(mb) (inHg) (mb) (inHg) (C) (F) (%) (C) (F)
00:05 1004 29.65 833 24.6 6.7 44.1 40 -5.9 21.5
00:10 1004 29.65 833 24.6 6.6 43.9 40 -5.9 21.4
00:15 1004 29.65 833 24.6 6.6 43.9 41 -5.8 21.5
00:20 1004 29.65 833 24.6 6.3 43.4 44 -5.1 22.8
00:25 1004 29.65 833 24.6 6.1 43 42 -5.8 21.6
00:30 1004 29.65 833 24.6 6.2 43.1 41 -5.9 21.3
00:35 1004 29.65 833 24.6 6.3 43.4 42 -5.6 21.9
00:40 1004 29.65 833 24.6 6.4 43.5 37 -7.1 19.2
00:45 1004 29.65 833 24.6 7.7 45.8 35 -6.9 19.5
00:50 1004 29.65 833 24.6 8 46.3 38 -5.6 21.9
00:55 1004 29.65 833 24.6 7.1 44.7 38 -6.3 20.7
01:00 1004 29.65 833 24.6 7.4 45.3 36 -6.8 19.8
01:05 1003 29.62 833 24.6 7.4 45.3 39 -5.8 21.6
01:10 1003 29.62 832 24.57 7 44.5 37 -6.8 19.8
01:15 1003 29.62 832 24.57 7.7 45.9 36 -6.4 20.4
01:20 1003 29.62 832 24.57 7.7 45.8 37 -6.2 20.9
01:25 1003 29.62 832 24.57 7.5 45.5 39 -5.7 21.8
01:30 1003 29.62 832 24.57 7.3 45.2 35 -7.2 19
01:35 1003 29.62 832 24.57 8.3 46.9 33 -7.1 19.2
01:40 1003 29.62 832 24.57 8.6 47.5 32 -7 19.4
01:45 1003 29.62 832 24.57 8.5 47.3 36 -5.8 21.6
01:50 1003 29.62 832 24.57 7.5 45.5 37 -6.2 20.8
01:55 1003 29.62 832 24.57 7.4 45.3 36 -6.6 20
02:00 1002 29.59 832 24.57 8.7 47.6 32 -7 19.5
02:05 1002 29.59 832 24.57 9.2 48.6 32 -6.6 20.1
02:10 1002 29.59 832 24.57 9.6 49.3 31 -6.8 19.8
02:15 1002 29.59 832 24.57 9.3 48.7 35 -5.5 22.2
02:20 1002 29.59 832 24.57 7.8 46 39 -5.4 22.4
02:25 1002 29.59 832 24.57 7.2 44.9 40 -5.6 22
02:30 1002 29.59 832 24.57 6.9 44.5 42 -5.2 22.6
02:35 1002 29.59 832 24.57 6.8 44.2 41 -5.7 21.8
02:40 1002 29.59 832 24.57 7 44.7 40 -5.6 21.9
02:45 1002 29.59 831 24.54 7.1 44.8 38 -6.4 20.6
02:50 1002 29.59 831 24.54 7.9 46.2 35 -6.7 19.9
02:55 1002 29.59 831 24.54 8.5 47.4 33 -6.7 20
03:00 1002 29.59 831 24.54 9.3 48.7 31 -7 19.5
03:05 1002 29.59 831 24.54 9.9 49.9 30 -6.6 20.1
03:10 1002 29.59 831 24.54 10.2 50.4 30 -6.5 20.2
03:15 1001 29.56 831 24.54 10 50.1 31 -6.2 20.9
03:20 1001 29.56 831 24.54 9.7 49.5 31 -6.5 20.2
03:25 1001 29.56 831 24.54 9.8 49.6 32 -6.1 21
03:30 1001 29.56 830 24.51 9.9 49.8 31 -6.5 20.2
03:35 1001 29.56 830 24.51 10.2 50.3 30 -6.5 20.3
03:40 1001 29.56 830 24.51 10.3 50.5 30 -6.4 20.5
03:45 1001 29.56 830 24.51 10.3 50.5 30 -6.7 20
03:50 1001 29.56 830 24.51 10.2 50.4 30 -6.4 20.5
03:55 1001 29.56 830 24.51 10.2 50.4 30 -6.4 20.5
04:00 1001 29.56 830 24.51 10.1 50.2 31 -6 21.1
04:05 1000 29.53 830 24.51 10 50 32 -6.1 21.1
04:10 1000 29.53 829 24.48 10 50 31 -6.1 21
04:15 1000 29.53 829 24.48 10 49.9 32 -5.8 21.6
04:20 1000 29.53 829 24.48 9.7 49.4 34 -5.4 22.2
04:25 1000 29.53 829 24.48 9.6 49.2 34 -5.3 22.4
04:30 1000 29.53 829 24.48 9.6 49.3 34 -5.5 22.1
04:35 1000 29.53 830 24.51 9.6 49.3 34 -5.4 22.4
04:40 1000 29.53 830 24.51 9.6 49.3 34 -5.5 22.1
04:45 1000 29.53 830 24.51 9.6 49.2 35 -5 23
04:50 1000 29.53 830 24.51 9.4 48.9 37 -4.5 23.9
04:55 1000 29.53 830 24.51 9.2 48.6 38 -4.5 24
05:00 1000 29.53 830 24.51 9 48.3 37 -4.7 23.6
05:05 1000 29.53 830 24.51 8.8 47.9 39 -4.4 24
05:10 1000 29.53 830 24.51 8.6 47.5 38 -4.8 23.4
05:15 1001 29.56 830 24.51 8.8 47.8 38 -4.8 23.4
05:20 1001 29.56 830 24.51 8.9 48.1 38 -4.6 23.7
05:25 1001 29.56 830 24.51 8.8 47.9 39 -4.4 24.1
05:30 1001 29.56 830 24.51 8.8 47.9 40 -4.2 24.5
05:35 1001 29.56 830 24.51 9 48.1 39 -4.2 24.4
05:40 1000 29.53 830 24.51 9.2 48.5 40 -3.8 25.1
05:45 1000 29.53 830 24.51 9 48.2 40 -4 24.8
05:50 1000 29.53 830 24.51 9.2 48.6 40 -3.5 25.7
05:55 1000 29.53 830 24.51 9.2 48.5 40 -3.6 25.4
06:00 1000 29.53 830 24.51 9.2 48.5 41 -3.3 26.1
06:05 1000 29.53 830 24.51 9.1 48.4 41 -3.5 25.6
06:10 1000 29.53 829 24.48 9 48.2 41 -3.4 26
06:15 1000 29.53 829 24.48 8.8 47.9 42 -3.3 26.1
06:20 1000 29.53 829 24.48 8.8 47.8 43 -3.1 26.4
06:25 1000 29.53 829 24.48 8.6 47.4 43 -3.1 26.4
06:30 1000 29.53 829 24.48 8.5 47.3 44 -3.1 26.3
06:35 1000 29.53 829 24.48 8.5 47.2 44 -3.2 26.3
06:40 1000 29.53 829 24.48 8.8 47.8 43 -3.2 26.2
06:45 1000 29.53 829 24.48 8.8 47.8 43 -3.2 26.3
06:50 999 29.5 829 24.48 8.6 47.5 42 -3.5 25.8
06:55 999 29.5 829 24.48 8.5 47.2 43 -3.4 25.9
07:00 999 29.5 828 24.45 8.3 47 44 -3.2 26.2
07:05 999 29.5 828 24.45 7.9 46.1 47 -2.8 26.9
07:10 999 29.5 828 24.45 7.3 45.2 46 -3.4 25.8
07:15 999 29.5 828 24.45 8 46.4 42 -4 24.8
07:20 999 29.5 828 24.45 8.3 46.9 45 -3 26.6
07:25 999 29.5 828 24.45 7.9 46.2 43 -3.9 25
07:30 999 29.5 828 24.45 8.4 47.1 45 -2.9 26.7
07:35 999 29.5 828 24.45 8.7 47.7 43 -3 26.5
07:40 999 29.5 828 24.45 8.6 47.5 46 -2.4 27.7
07:45 999 29.5 828 24.45 8.5 47.3 44 -3.1 26.4
07:50 999 29.5 828 24.45 8.6 47.5 45 -2.5 27.5
07:55 999 29.5 828 24.45 8.3 47 47 -2.2 28
08:00 999 29.5 828 24.45 8.4 47.2 45 -2.7 27.1
08:05 999 29.5 828 24.45 8.4 47.1 46 -2.4 27.7
08:10 999 29.5 828 24.45 8.2 46.8 46 -2.6 27.4
08:15 999 29.5 828 24.45 8.2 46.7 49 -2 28.4
08:20 999 29.5 828 24.45 7.7 45.9 47 -2.8 27
08:25 999 29.5 828 24.45 8.4 47.1 46 -2.5 27.6
08:30 999 29.5 828 24.45 8.6 47.5 47 -2 28.3
08:35 999 29.5 828 24.45 8.4 47.1 48 -2.1 28.2
08:40 999 29.5 828 24.45 8.9 48 46 -2.1 28.1
08:45 999 29.5 828 24.45 9 48.2 46 -2 28.5
08:50 999 29.5 828 24.45 8.9 48.1 47 -1.7 29
08:55 999 29.5 828 24.45 8.7 47.6 48 -1.7 29
09:00 998 29.47 828 24.45 8.6 47.5 48 -1.8 28.8
09:05 999 29.5 828 24.45 8.5 47.3 49 -1.7 29
09:10 999 29.5 828 24.45 8.6 47.4 49 -1.6 29.1
09:15 999 29.5 828 24.45 8.5 47.2 50 -1.2 29.8
09:20 998 29.47 828 24.45 8.3 46.9 51 -1.3 29.7
09:25 998 29.47 828 24.45 8.3 46.9 51 -1.3 29.7
09:30 998 29.47 828 24.45 8.2 46.7 51 -1.3 29.7
09:35 998 29.47 827 24.42 8 46.4 52 -1.3 29.7
09:40 998 29.47 827 24.42 7.8 46.1 52 -1.4 29.4
09:45 998 29.47 827 24.42 7.9 46.2 50 -2 28.5
09:50 998 29.47 827 24.42 8.1 46.5 49 -1.8 28.7
09:55 998 29.47 827 24.42 7.7 45.8 52 -1.6 29.1
10:00 998 29.47 827 24.42 7.4 45.2 50 -2.4 27.8
10:05 998 29.47 827 24.42 7.6 45.6 52 -1.8 28.8
10:10 998 29.47 827 24.42 7.4 45.3 52 -1.8 28.7
10:15 998 29.47 827 24.42 7.6 45.6 48 -2.6 27.3
10:20 998 29.47 827 24.42 9 48.2 45 -2.3 27.8
10:25 998 29.47 827 24.42 9.4 48.9 45 -2 28.5
10:30 997 29.44 827 24.42 9.4 48.9 45 -1.8 28.7
10:35 997 29.44 827 24.42 9.5 49 46 -1.7 29
10:40 997 29.44 827 24.42 9.6 49.3 46 -1.4 29.5
10:45 997 29.44 827 24.42 9.6 49.2 46 -1.4 29.5
10:50 997 29.44 827 24.42 9.1 48.4 48 -1.4 29.4
10:55 997 29.44 827 24.42 9 48.3 47 -1.7 28.9
11:00 997 29.44 826 24.39 9.3 48.8 47 -1.4 29.4
11:05 997 29.44 826 24.39 9.6 49.2 46 -1.5 29.4
11:10 997 29.44 826 24.39 9.6 49.2 46 -1.3 29.6
11:15 997 29.44 826 24.39 9.9 49.9 43 -1.9 28.6
11:20 997 29.44 826 24.39 10.1 50.3 44 -1.4 29.4
11:25 997 29.44 826 24.39 10.4 50.6 43 -1.7 29
11:30 997 29.44 826 24.39 10.2 50.3 43 -1.7 29
11:35 997 29.44 827 24.42 9.9 49.9 45 -1.3 29.6
11:40 998 29.47 827 24.42 9.8 49.6 46 -1.4 29.4
11:45 998 29.47 827 24.42 9.4 48.9 48 -1.1 30
11:50 998 29.47 827 24.42 8.9 48 50 -1 30.2
11:55 998 29.47 827 24.42 9 48.2 51 -0.5 31.1
12:00 997 29.44 827 24.42 9 48.2 51 -0.5 31.1
12:05 997 29.44 827 24.42 8.8 47.9 52 -0.4 31.2
12:10 997 29.44 827 24.42 8.9 48.1 52 -0.4 31.3
12:15 997 29.44 826 24.39 9 48.3 50 -0.8 30.5
12:20 997 29.44 826 24.39 9.4 48.9 49 -0.7 30.8
12:25 997 29.44 827 24.42 9.9 49.7 47 -0.8 30.6
12:30 997 29.44 827 24.42 10 50 47 -0.9 30.4
12:35 997 29.44 827 24.42 10.4 50.6 46 -0.8 30.6
12:40 997 29.44 827 24.42 10.6 51.2 45 -0.7 30.7
12:45 997 29.44 827 24.42 10.9 51.5 45 -0.5 31.2
12:50 997 29.44 827 24.42 10.9 51.7 42 -1.6 29.2
12:55 997 29.44 826 24.39 10.7 51.3 43 -1.2 29.8
13:00 997 29.44 826 24.39 10.8 51.4 43 -1.4 29.5
13:05 997 29.44 826 24.39 10.5 50.9 44 -1.2 29.8
13:10 997 29.44 826 24.39 10.6 51.1 44 -1.1 30
13:15 997 29.44 826 24.39 10.7 51.3 43 -1.2 29.8
13:20 997 29.44 826 24.39 10.5 51 45 -0.8 30.6
13:25 997 29.44 826 24.39 10 50 45 -1.2 29.8
13:30 997 29.44 826 24.39 10.4 50.6 44 -1.4 29.6
13:35 997 29.44 827 24.42 10.5 50.9 44 -1.1 30
13:40 998 29.47 827 24.42 10.2 50.3 50 0.3 32.5
13:45 999 29.5 828 24.45 6.6 43.9 68 1.2 34.1
13:50 999 29.5 828 24.45 4.3 39.8 73 -0.1 31.9
13:55 999 29.5 828 24.45 3.8 38.8 74 -0.4 31.2
14:00 999 29.5 828 24.45 3.7 38.6 73 -0.8 30.6
14:05 999 29.5 829 24.48 3.9 39 72 -0.6 30.8
14:10 999 29.5 829 24.48 4.1 39.4 70 -0.9 30.5
14:15 1000 29.53 829 24.48 4.1 39.3 70 -1 30.2
14:20 999 29.5 829 24.48 4.1 39.4 68 -1.3 29.7
14:25 1000 29.53 829 24.48 4.3 39.8 69 -0.9 30.3
14:30 1000 29.53 829 24.48 4.5 40 68 -1 30.2
14:35 1000 29.53 829 24.48 4.8 40.6 65 -1.2 29.8
14:40 1000 29.53 829 24.48 5 41 65 -1.1 30.1
14:45 1000 29.53 829 24.48 4.9 40.8 66 -0.8 30.5
14:50 1000 29.53 829 24.48 4.8 40.6 64 -1.4 29.5
14:55 1000 29.53 829 24.48 4.6 40.3 65 -1.3 29.6
15:00 1000 29.53 829 24.48 4.6 40.3 66 -1.2 29.9
15:05 1000 29.53 829 24.48 4.7 40.5 62 -2 28.4
15:10 1000 29.53 829 24.48 4.7 40.4 62 -1.9 28.6
15:15 1000 29.53 829 24.48 4.7 40.5 62 -2 28.4
15:20 1000 29.53 829 24.48 4.8 40.6 60 -2.4 27.7
15:25 1000 29.53 829 24.48 4.8 40.7 61 -2.1 28.3
15:30 1000 29.53 829 24.48 4.9 40.8 59 -2.4 27.6
15:35 1000 29.53 829 24.48 5 41 57 -2.7 27.2
15:40 1000 29.53 829 24.48 5.1 41.1 56 -3 26.6
15:45 1000 29.53 829 24.48 5.2 41.4 53 -3.6 25.5
15:50 1000 29.53 829 24.48 5.4 41.8 53 -3.3 26.1
15:55 1000 29.53 829 24.48 5.5 41.9 54 -3.1 26.4
16:00 1000 29.53 830 24.51 5.4 41.8 54 -3.1 26.3
16:05 1000 29.53 830 24.51 5.4 41.8 53 -3.5 25.7
16:10 1000 29.53 830 24.51 5.7 42.3 52 -3.4 25.9
16:15 1000 29.53 830 24.51 5.8 42.5 50 -3.7 25.4
16:20 1000 29.53 830 24.51 5.8 42.5 49 -4 24.8
16:25 1000 29.53 830 24.51 5.9 42.7 49 -3.8 25.1
16:30 1000 29.53 830 24.51 6 42.8 49 -4 24.7
16:35 1001 29.56 830 24.51 6 42.8 46 -4.7 23.5
16:40 1001 29.56 830 24.51 5.9 42.6 45 -5 23
16:45 1001 29.56 830 24.51 5.8 42.5 46 -5 22.9
16:50 1001 29.56 830 24.51 5.9 42.5 45 -5.1 22.8
16:55 1001 29.56 831 24.54 5.8 42.5 45 -5.2 22.7
17:00 1002 29.59 831 24.54 5.8 42.4 44 -5.6 21.9
17:05 1002 29.59 832 24.57 5.6 42.1 56 -2.4 27.6
17:10 1003 29.62 832 24.57 3.7 38.7 68 -1.7 29
17:15 1003 29.62 832 24.57 2.9 37.2 73 -1.5 29.4
17:20 1003 29.62 832 24.57 2.5 36.5 75 -1.5 29.3
17:25 1003 29.62 832 24.57 2.5 36.5 75 -1.4 29.4
17:30 1004 29.65 833 24.6 2.3 36.1 82 -0.5 31
17:35 1004 29.65 833 24.6 1.4 34.5 87 -0.5 31.1
17:40 1004 29.65 833 24.6 0.8 33.5 90 -0.7 30.8
17:45 1004 29.65 833 24.6 0.7 33.2 91 -0.7 30.8
17:50 1004 29.65 833 24.6 0.8 33.5 87 -1.1 30
17:55 1004 29.65 833 24.6 1.3 34.3 78 -2.2 28.1
18:00 1004 29.65 833 24.6 2 35.6 72 -2.5 27.5
18:05 1004 29.65 833 24.6 2.2 36 69 -2.9 26.8
18:10 1004 29.65 833 24.6 2.4 36.2 67 -3.2 26.2
18:15 1004 29.65 833 24.6 2.4 36.4 66 -3.3 26.1
18:20 1004 29.65 833 24.6 2.7 36.9 61 -4.1 24.7
18:25 1004 29.65 833 24.6 3.3 37.9 59 -4.1 24.7
18:30 1004 29.65 833 24.6 3.4 38.1 60 -3.7 25.4
18:35 1004 29.65 833 24.6 3.4 38.1 61 -3.5 25.6
18:40 1004 29.65 833 24.6 3.6 38.4 59 -3.7 25.3
18:45 1004 29.65 833 24.6 3.5 38.2 60 -3.6 25.6
18:50 1004 29.65 833 24.6 3.5 38.3 55 -4.6 23.7
18:55 1004 29.65 833 24.6 3.5 38.3 53 -5.1 22.9
19:00 1004 29.65 833 24.6 3.6 38.4 53 -5.1 22.8
19:05 1004 29.65 833 24.6 3.5 38.3 52 -5.4 22.2
19:10 1004 29.65 833 24.6 3.4 38.2 47 -6.9 19.6
19:15 1004 29.65 833 24.6 3.7 38.6 44 -7.5 18.6
19:20 1004 29.65 833 24.6 3.8 38.9 43 -7.7 18.1
19:25 1004 29.65 833 24.6 3.7 38.7 43 -7.6 18.3
19:30 1004 29.65 834 24.63 3.6 38.5 41 -8.5 16.8
19:35 1004 29.65 833 24.6 3.7 38.7 40 -8.7 16.3
19:40 1004 29.65 834 24.63 3.8 38.8 40 -8.7 16.4
19:45 1004 29.65 834 24.63 3.8 38.8 38 -9.1 15.5
19:50 1004 29.65 834 24.63 3.7 38.7 37 -9.6 14.6
19:55 1004 29.65 834 24.63 3.7 38.7 36 -10.1 13.8
20:00 1004 29.65 834 24.63 3.8 38.8 37 -9.6 14.8
20:05 1004 29.65 834 24.63 3.7 38.6 39 -9 15.8
20:10 1004 29.65 834 24.63 3.4 38.2 39 -9.4 15.1
20:15 1004 29.65 834 24.63 3.5 38.3 37 -10 14.1
20:20 1005 29.68 834 24.63 3.6 38.5 37 -9.8 14.3
20:25 1005 29.68 834 24.63 3.6 38.5 37 -9.7 14.5
20:30 1005 29.68 834 24.63 3.4 38.2 38 -9.5 15
20:35 1005 29.68 834 24.63 3.3 37.9 38 -9.6 14.7
20:40 1005 29.68 834 24.63 3.3 38 38 -9.8 14.4
20:45 1005 29.68 834 24.63 3.4 38.2 37 -10.1 13.9
20:50 1005 29.68 834 24.63 3.5 38.4 35 -10.4 13.3
20:55 1005 29.68 834 24.63 3.5 38.3 37 -9.9 14.2
21:00 1005 29.68 834 24.63 3.3 37.9 37 -9.9 14.1
21:05 1005 29.68 834 24.63 3.3 37.9 36 -10.3 13.4
21:10 1005 29.68 834 24.63 3.4 38.1 35 -10.5 13.1
21:15 1005 29.68 834 24.63 3.4 38.1 36 -10.5 13.1
21:20 1005 29.68 834 24.63 3.5 38.2 34 -11.1 12.1
21:25 1005 29.68 834 24.63 3.6 38.5 32 -11.6 11.2
21:30 1005 29.68 834 24.63 3.9 39 33 -10.8 12.5
21:35 1005 29.68 834 24.63 3.8 38.8 34 -10.8 12.6
21:40 1005 29.68 834 24.63 3.8 38.9 32 -11.3 11.6
21:45 1005 29.68 834 24.63 4 39.2 33 -11 12.2
21:50 1005 29.68 835 24.66 4 39.2 32 -11.2 11.9
21:55 1005 29.68 835 24.66 4 39.3 32 -11.3 11.7
22:00 1005 29.68 835 24.66 4 39.2 33 -11 12.2
22:05 1005 29.68 835 24.66 4 39.2 29 -12.3 9.8
22:10 1005 29.68 835 24.66 4.3 39.8 31 -11.3 11.6
22:15 1005 29.68 835 24.66 4.1 39.4 31 -11.4 11.5
22:20 1005 29.68 835 24.66 4.2 39.5 30 -11.9 10.6
22:25 1005 29.68 834 24.63 4.3 39.7 29 -12.3 9.9
22:30 1005 29.68 834 24.63 4.6 40.2 30 -11.7 11
22:35 1005 29.68 835 24.66 4.5 40.1 31 -11.2 11.8
22:40 1006 29.71 835 24.66 4.3 39.7 32 -11.2 11.8
22:45 1006 29.71 835 24.66 4.2 39.6 31 -11.5 11.2
22:50 1006 29.71 835 24.66 4.2 39.5 31 -11.5 11.4
22:55 1006 29.71 835 24.66 4.2 39.5 32 -11 12.2
23:00 1006 29.71 835 24.66 3.9 39 33 -11.1 12
23:05 1006 29.71 835 24.66 3.9 38.9 32 -11.3 11.6
23:10 1006 29.71 835 24.66 4 39.2 33 -10.9 12.4
23:15 1006 29.71 835 24.66 4 39.2 34 -10.5 13.1
23:20 1006 29.71 835 24.66 4 39.2 33 -10.9 12.4
23:25 1006 29.71 835 24.66 4 39.2 33 -10.9 12.3
23:30 1006 29.71 835 24.66 4.1 39.4 32 -11 12.2
23:35 1006 29.71 835 24.66 4.3 39.7 33 -10.6 12.9
23:40 1006 29.71 835 24.66 4.2 39.6 34 -10.4 13.3
23:45 1006 29.71 835 24.66 4.1 39.4 34 -10.4 13.3
23:50 1006 29.71 835 24.66 4.2 39.6 33 -10.6 12.9
23:55 1006 29.71 835 24.66 4.3 39.7 35 -9.7 14.5
24:00 1006 29.71 835 24.66 4.1 39.4 36 -9.5 14.8